sensor_id;sensor_type;location;lat;lon;timestamp;temperature;humidity
11136;DHT22;5622;50.840;4.948;2022-12-11T00:01:30;2.30;99.90
11136;DHT22;5622;50.840;4.948;2022-12-11T00:03:57;3.00;99.90
11136;DHT22;5622;50.840;4.948;2022-12-11T00:06:24;2.30;99.90
11136;DHT22;5622;50.840;4.948;2022-12-11T00:08:53;2.60;99.90
11136;DHT22;5622;50.840;4.948;2022-12-11T00:11:21;2.50;99.90
11136;DHT22;5622;50.840;4.948;2022-12-11T00:13:49;2.50;99.90
11136;DHT22;5622;50.840;4.948;2022-12-11T00:16:16;2.40;99.90
11136;DHT22;5622;50.840;4.948;2022-12-11T00:18:43;2.50;99.90
11136;DHT22;5622;50.840;4.948;2022-12-11T00:21:12;3.10;99.90
11136;DHT22;5622;50.840;4.948;2022-12-11T00:23:40;3.20;99.90
11136;DHT22;5622;50.840;4.948;2022-12-11T00:26:12;2.70;99.90
11136;DHT22;5622;50.840;4.948;2022-12-11T00:28:40;3.30;99.90
11136;DHT22;5622;50.840;4.948;2022-12-11T00:31:10;2.40;99.90
11136;DHT22;5622;50.840;4.948;2022-12-11T00:33:38;3.20;99.90
11136;DHT22;5622;50.840;4.948;2022-12-11T00:36:11;2.50;99.90
11136;DHT22;5622;50.840;4.948;2022-12-11T00:38:38;2.30;99.90
11136;DHT22;5622;50.840;4.948;2022-12-11T00:41:05;2.60;99.90
11136;DHT22;5622;50.840;4.948;2022-12-11T00:43:34;3.50;99.90
11136;DHT22;5622;50.840;4.948;2022-12-11T00:46:01;2.40;99.90
11136;DHT22;5622;50.840;4.948;2022-12-11T00:48:29;3.00;99.90
11136;DHT22;5622;50.840;4.948;2022-12-11T00:50:56;2.60;99.90
11136;DHT22;5622;50.840;4.948;2022-12-11T00:53:23;2.40;99.90
11136;DHT22;5622;50.840;4.948;2022-12-11T00:55:51;2.40;99.90
11136;DHT22;5622;50.840;4.948;2022-12-11T00:58:18;2.40;99.90
11136;DHT22;5622;50.840;4.948;2022-12-11T01:00:47;2.50;99.90
11136;DHT22;5622;50.840;4.948;2022-12-11T01:03:15;2.90;99.90
11136;DHT22;5622;50.840;4.948;2022-12-11T01:05:50;2.60;99.90
11136;DHT22;5622;50.840;4.948;2022-12-11T01:08:17;2.30;99.90
11136;DHT22;5622;50.840;4.948;2022-12-11T01:10:47;3.00;99.90
11136;DHT22;5622;50.840;4.948;2022-12-11T01:13:14;2.40;99.90
11136;DHT22;5622;50.840;4.948;2022-12-11T01:15:43;2.90;99.90
11136;DHT22;5622;50.840;4.948;2022-12-11T01:18:13;2.60;99.90
11136;DHT22;5622;50.840;4.948;2022-12-11T01:20:41;2.40;99.90
11136;DHT22;5622;50.840;4.948;2022-12-11T01:23:10;3.40;99.90
11136;DHT22;5622;50.840;4.948;2022-12-11T01:25:38;3.10;99.90
11136;DHT22;5622;50.840;4.948;2022-12-11T01:28:06;3.40;99.90
11136;DHT22;5622;50.840;4.948;2022-12-11T01:30:34;2.70;99.90
11136;DHT22;5622;50.840;4.948;2022-12-11T01:33:01;2.30;99.90
11136;DHT22;5622;50.840;4.948;2022-12-11T01:35:29;2.50;99.90
11136;DHT22;5622;50.840;4.948;2022-12-11T01:37:57;2.80;99.90
11136;DHT22;5622;50.840;4.948;2022-12-11T01:40:25;2.30;99.90
11136;DHT22;5622;50.840;4.948;2022-12-11T01:42:52;2.30;99.90
11136;DHT22;5622;50.840;4.948;2022-12-11T01:45:32;2.60;99.90
11136;DHT22;5622;50.840;4.948;2022-12-11T01:48:04;2.30;99.90
11136;DHT22;5622;50.840;4.948;2022-12-11T01:50:37;2.30;99.90
11136;DHT22;5622;50.840;4.948;2022-12-11T01:53:07;2.30;99.90
11136;DHT22;5622;50.840;4.948;2022-12-11T01:55:37;2.40;99.90
11136;DHT22;5622;50.840;4.948;2022-12-11T01:58:05;2.30;99.90
11136;DHT22;5622;50.840;4.948;2022-12-11T02:00:33;2.30;99.90
11136;DHT22;5622;50.840;4.948;2022-12-11T02:03:00;2.30;99.90
11136;DHT22;5622;50.840;4.948;2022-12-11T02:05:27;2.50;99.90
11136;DHT22;5622;50.840;4.948;2022-12-11T02:07:58;2.30;99.90
11136;DHT22;5622;50.840;4.948;2022-12-11T02:10:35;3.40;99.90
11136;DHT22;5622;50.840;4.948;2022-12-11T02:13:12;2.30;99.90
11136;DHT22;5622;50.840;4.948;2022-12-11T02:15:46;2.60;99.90
11136;DHT22;5622;50.840;4.948;2022-12-11T02:18:17;2.50;99.90
11136;DHT22;5622;50.840;4.948;2022-12-11T02:20:52;3.50;99.90
11136;DHT22;5622;50.840;4.948;2022-12-11T02:23:47;3.50;99.90
11136;DHT22;5622;50.840;4.948;2022-12-11T02:26:30;2.40;99.90
11136;DHT22;5622;50.840;4.948;2022-12-11T02:29:04;2.40;99.90
11136;DHT22;5622;50.840;4.948;2022-12-11T02:31:35;2.30;99.90
11136;DHT22;5622;50.840;4.948;2022-12-11T02:34:08;2.50;99.90
11136;DHT22;5622;50.840;4.948;2022-12-11T02:36:39;3.40;99.90
11136;DHT22;5622;50.840;4.948;2022-12-11T02:39:10;2.40;99.90
11136;DHT22;5622;50.840;4.948;2022-12-11T02:41:39;3.20;99.90
11136;DHT22;5622;50.840;4.948;2022-12-11T02:44:11;2.40;99.90
11136;DHT22;5622;50.840;4.948;2022-12-11T02:46:40;2.50;99.90
11136;DHT22;5622;50.840;4.948;2022-12-11T02:49:09;2.30;99.90
11136;DHT22;5622;50.840;4.948;2022-12-11T02:51:39;2.30;99.90
11136;DHT22;5622;50.840;4.948;2022-12-11T02:54:09;2.90;99.90
11136;DHT22;5622;50.840;4.948;2022-12-11T02:56:42;2.30;99.90
11136;DHT22;5622;50.840;4.948;2022-12-11T02:59:14;3.40;99.90
11136;DHT22;5622;50.840;4.948;2022-12-11T03:01:45;2.30;99.90
11136;DHT22;5622;50.840;4.948;2022-12-11T03:04:12;2.60;99.90
11136;DHT22;5622;50.840;4.948;2022-12-11T03:06:44;2.30;99.90
11136;DHT22;5622;50.840;4.948;2022-12-11T03:09:14;2.40;99.90
11136;DHT22;5622;50.840;4.948;2022-12-11T03:11:41;3.80;99.90
11136;DHT22;5622;50.840;4.948;2022-12-11T03:14:08;2.30;99.90
11136;DHT22;5622;50.840;4.948;2022-12-11T03:16:38;3.20;99.90
11136;DHT22;5622;50.840;4.948;2022-12-11T03:19:11;2.30;99.90
11136;DHT22;5622;50.840;4.948;2022-12-11T03:21:44;2.30;99.90
11136;DHT22;5622;50.840;4.948;2022-12-11T03:24:15;2.50;99.90
11136;DHT22;5622;50.840;4.948;2022-12-11T03:26:49;2.80;99.90
11136;DHT22;5622;50.840;4.948;2022-12-11T03:29:23;2.50;99.90
11136;DHT22;5622;50.840;4.948;2022-12-11T03:31:56;2.30;99.90
11136;DHT22;5622;50.840;4.948;2022-12-11T03:34:28;2.30;99.90
11136;DHT22;5622;50.840;4.948;2022-12-11T03:36:58;2.30;99.90
11136;DHT22;5622;50.840;4.948;2022-12-11T03:39:28;2.80;99.90
11136;DHT22;5622;50.840;4.948;2022-12-11T03:41:58;2.30;99.90
11136;DHT22;5622;50.840;4.948;2022-12-11T03:44:27;3.40;99.90
11136;DHT22;5622;50.840;4.948;2022-12-11T03:46:57;2.30;99.90
11136;DHT22;5622;50.840;4.948;2022-12-11T03:49:28;2.30;99.90
11136;DHT22;5622;50.840;4.948;2022-12-11T03:51:59;2.30;99.90
11136;DHT22;5622;50.840;4.948;2022-12-11T03:54:29;2.30;99.90
11136;DHT22;5622;50.840;4.948;2022-12-11T03:56:58;2.30;99.90
11136;DHT22;5622;50.840;4.948;2022-12-11T03:59:27;2.60;99.90
11136;DHT22;5622;50.840;4.948;2022-12-11T04:01:56;2.40;99.90
11136;DHT22;5622;50.840;4.948;2022-12-11T04:04:23;2.30;99.90
11136;DHT22;5622;50.840;4.948;2022-12-11T04:06:50;2.80;99.90
11136;DHT22;5622;50.840;4.948;2022-12-11T04:09:17;2.30;99.90
11136;DHT22;5622;50.840;4.948;2022-12-11T04:11:44;3.30;99.90
11136;DHT22;5622;50.840;4.948;2022-12-11T04:14:12;2.60;99.90
11136;DHT22;5622;50.840;4.948;2022-12-11T04:17:10;3.00;99.90
11136;DHT22;5622;50.840;4.948;2022-12-11T04:19:57;3.20;99.90
11136;DHT22;5622;50.840;4.948;2022-12-11T04:22:42;2.30;99.90
11136;DHT22;5622;50.840;4.948;2022-12-11T04:25:26;3.10;99.90
11136;DHT22;5622;50.840;4.948;2022-12-11T04:27:53;2.30;99.90
11136;DHT22;5622;50.840;4.948;2022-12-11T04:30:21;3.10;99.90
11136;DHT22;5622;50.840;4.948;2022-12-11T04:32:51;2.30;99.90
11136;DHT22;5622;50.840;4.948;2022-12-11T04:35:18;2.50;99.90
11136;DHT22;5622;50.840;4.948;2022-12-11T04:37:45;2.30;99.90
11136;DHT22;5622;50.840;4.948;2022-12-11T04:40:15;2.60;99.90
11136;DHT22;5622;50.840;4.948;2022-12-11T04:42:42;2.20;99.90
11136;DHT22;5622;50.840;4.948;2022-12-11T04:45:10;2.30;99.90
11136;DHT22;5622;50.840;4.948;2022-12-11T04:47:38;2.20;99.90
11136;DHT22;5622;50.840;4.948;2022-12-11T04:50:10;2.20;99.90
11136;DHT22;5622;50.840;4.948;2022-12-11T04:52:37;2.20;99.90
11136;DHT22;5622;50.840;4.948;2022-12-11T04:55:05;2.30;99.90
11136;DHT22;5622;50.840;4.948;2022-12-11T04:57:33;2.20;99.90
11136;DHT22;5622;50.840;4.948;2022-12-11T05:00:00;2.30;99.90
11136;DHT22;5622;50.840;4.948;2022-12-11T05:02:29;2.20;99.90
11136;DHT22;5622;50.840;4.948;2022-12-11T05:04:56;2.20;99.90
11136;DHT22;5622;50.840;4.948;2022-12-11T05:07:24;2.50;99.90
11136;DHT22;5622;50.840;4.948;2022-12-11T05:09:52;2.20;99.90
11136;DHT22;5622;50.840;4.948;2022-12-11T05:12:19;3.10;99.90
11136;DHT22;5622;50.840;4.948;2022-12-11T05:18:08;2.20;99.90
11136;DHT22;5622;50.840;4.948;2022-12-11T05:20:35;2.30;99.90
11136;DHT22;5622;50.840;4.948;2022-12-11T05:23:03;2.60;99.90
11136;DHT22;5622;50.840;4.948;2022-12-11T05:25:30;2.20;99.90
11136;DHT22;5622;50.840;4.948;2022-12-11T05:27:57;2.40;99.90
11136;DHT22;5622;50.840;4.948;2022-12-11T05:30:25;3.00;99.90
11136;DHT22;5622;50.840;4.948;2022-12-11T05:32:52;2.20;99.90
11136;DHT22;5622;50.840;4.948;2022-12-11T05:35:19;2.20;99.90
11136;DHT22;5622;50.840;4.948;2022-12-11T05:37:46;2.70;99.90
11136;DHT22;5622;50.840;4.948;2022-12-11T05:40:15;2.20;99.90
11136;DHT22;5622;50.840;4.948;2022-12-11T05:42:42;2.20;99.90
11136;DHT22;5622;50.840;4.948;2022-12-11T05:45:10;2.30;99.90
11136;DHT22;5622;50.840;4.948;2022-12-11T05:47:37;2.20;99.90
11136;DHT22;5622;50.840;4.948;2022-12-11T05:50:04;2.30;99.90
11136;DHT22;5622;50.840;4.948;2022-12-11T05:52:31;2.20;99.90
11136;DHT22;5622;50.840;4.948;2022-12-11T05:54:58;2.20;99.90
11136;DHT22;5622;50.840;4.948;2022-12-11T05:57:27;3.30;99.90
11136;DHT22;5622;50.840;4.948;2022-12-11T05:59:54;3.10;99.90
11136;DHT22;5622;50.840;4.948;2022-12-11T06:02:21;2.20;99.90
11136;DHT22;5622;50.840;4.948;2022-12-11T06:04:48;2.50;99.90
11136;DHT22;5622;50.840;4.948;2022-12-11T06:07:15;2.40;99.90
11136;DHT22;5622;50.840;4.948;2022-12-11T06:09:43;2.30;99.90
11136;DHT22;5622;50.840;4.948;2022-12-11T06:12:10;2.20;99.90
11136;DHT22;5622;50.840;4.948;2022-12-11T06:14:38;2.90;99.90
11136;DHT22;5622;50.840;4.948;2022-12-11T06:17:05;2.20;99.90
11136;DHT22;5622;50.840;4.948;2022-12-11T06:19:32;2.20;99.90
11136;DHT22;5622;50.840;4.948;2022-12-11T06:21:59;2.20;99.90
11136;DHT22;5622;50.840;4.948;2022-12-11T06:24:26;3.10;99.90
11136;DHT22;5622;50.840;4.948;2022-12-11T06:26:54;3.10;99.90
11136;DHT22;5622;50.840;4.948;2022-12-11T06:29:21;2.50;99.90
11136;DHT22;5622;50.840;4.948;2022-12-11T06:31:49;3.10;99.90
11136;DHT22;5622;50.840;4.948;2022-12-11T06:34:16;3.00;99.90
11136;DHT22;5622;50.840;4.948;2022-12-11T06:36:43;2.20;99.90
11136;DHT22;5622;50.840;4.948;2022-12-11T06:39:10;2.70;99.90
11136;DHT22;5622;50.840;4.948;2022-12-11T06:41:38;2.20;99.90
11136;DHT22;5622;50.840;4.948;2022-12-11T06:44:05;2.30;99.90
11136;DHT22;5622;50.840;4.948;2022-12-11T06:46:32;2.20;99.90
11136;DHT22;5622;50.840;4.948;2022-12-11T06:49:00;2.70;99.90
11136;DHT22;5622;50.840;4.948;2022-12-11T06:51:27;3.30;99.90
11136;DHT22;5622;50.840;4.948;2022-12-11T06:53:56;2.20;99.90
11136;DHT22;5622;50.840;4.948;2022-12-11T06:56:23;2.20;99.90
11136;DHT22;5622;50.840;4.948;2022-12-11T06:58:50;3.30;99.90
11136;DHT22;5622;50.840;4.948;2022-12-11T07:01:20;2.20;99.90
11136;DHT22;5622;50.840;4.948;2022-12-11T07:03:48;2.80;99.90
11136;DHT22;5622;50.840;4.948;2022-12-11T07:06:16;2.20;99.90
11136;DHT22;5622;50.840;4.948;2022-12-11T07:08:44;2.30;99.90
11136;DHT22;5622;50.840;4.948;2022-12-11T07:11:13;2.20;99.90
11136;DHT22;5622;50.840;4.948;2022-12-11T07:13:40;2.50;99.90
11136;DHT22;5622;50.840;4.948;2022-12-11T07:16:09;2.20;99.90
11136;DHT22;5622;50.840;4.948;2022-12-11T07:18:36;2.20;99.90
11136;DHT22;5622;50.840;4.948;2022-12-11T07:21:04;2.40;99.90
11136;DHT22;5622;50.840;4.948;2022-12-11T07:23:34;2.20;99.90
11136;DHT22;5622;50.840;4.948;2022-12-11T07:26:04;2.20;99.90
11136;DHT22;5622;50.840;4.948;2022-12-11T07:28:31;2.10;99.90
11136;DHT22;5622;50.840;4.948;2022-12-11T07:30:59;2.10;99.90
11136;DHT22;5622;50.840;4.948;2022-12-11T21:29:33;0.90;99.90
11136;DHT22;5622;50.840;4.948;2022-12-11T21:32:00;0.90;99.90
11136;DHT22;5622;50.840;4.948;2022-12-11T21:34:27;0.90;99.90
11136;DHT22;5622;50.840;4.948;2022-12-11T21:36:55;1.60;99.90
11136;DHT22;5622;50.840;4.948;2022-12-11T21:39:22;0.50;99.90
11136;DHT22;5622;50.840;4.948;2022-12-11T21:41:50;1.20;99.90
11136;DHT22;5622;50.840;4.948;2022-12-11T21:44:17;1.70;99.90
11136;DHT22;5622;50.840;4.948;2022-12-11T21:46:45;0.90;99.90
11136;DHT22;5622;50.840;4.948;2022-12-11T21:49:13;0.60;99.90
11136;DHT22;5622;50.840;4.948;2022-12-11T21:51:40;0.60;99.90
11136;DHT22;5622;50.840;4.948;2022-12-11T21:54:11;0.80;99.90
11136;DHT22;5622;50.840;4.948;2022-12-11T21:56:39;0.50;99.90
11136;DHT22;5622;50.840;4.948;2022-12-11T21:59:07;0.80;99.90
11136;DHT22;5622;50.840;4.948;2022-12-11T22:01:36;0.50;99.90
11136;DHT22;5622;50.840;4.948;2022-12-11T22:04:07;0.90;99.90
11136;DHT22;5622;50.840;4.948;2022-12-11T22:06:35;1.40;99.90
11136;DHT22;5622;50.840;4.948;2022-12-11T22:09:03;0.40;99.90
11136;DHT22;5622;50.840;4.948;2022-12-11T22:11:32;0.60;99.90
11136;DHT22;5622;50.840;4.948;2022-12-11T22:14:00;0.30;99.90
11136;DHT22;5622;50.840;4.948;2022-12-11T22:16:27;1.40;99.90
11136;DHT22;5622;50.840;4.948;2022-12-11T22:18:55;0.30;99.90
11136;DHT22;5622;50.840;4.948;2022-12-11T22:21:24;0.80;99.90
11136;DHT22;5622;50.840;4.948;2022-12-11T22:23:51;0.40;99.90
11136;DHT22;5622;50.840;4.948;2022-12-11T22:26:20;0.80;99.90
11136;DHT22;5622;50.840;4.948;2022-12-11T22:28:48;0.30;99.90
11136;DHT22;5622;50.840;4.948;2022-12-11T22:31:18;1.40;99.90
11136;DHT22;5622;50.840;4.948;2022-12-11T22:33:46;0.30;99.90
11136;DHT22;5622;50.840;4.948;2022-12-11T22:36:14;0.20;99.90
11136;DHT22;5622;50.840;4.948;2022-12-11T22:38:43;1.20;99.90
11136;DHT22;5622;50.840;4.948;2022-12-11T22:41:12;0.70;99.90
11136;DHT22;5622;50.840;4.948;2022-12-11T22:43:39;0.20;99.90
11136;DHT22;5622;50.840;4.948;2022-12-11T22:46:07;0.20;99.90
11136;DHT22;5622;50.840;4.948;2022-12-11T22:48:34;0.20;99.90
11136;DHT22;5622;50.840;4.948;2022-12-11T22:51:04;0.70;99.90
11136;DHT22;5622;50.840;4.948;2022-12-11T22:53:31;0.10;99.90
11136;DHT22;5622;50.840;4.948;2022-12-11T22:56:03;0.10;99.90
11136;DHT22;5622;50.840;4.948;2022-12-11T22:58:30;0.80;99.90
11136;DHT22;5622;50.840;4.948;2022-12-11T23:00:57;0.00;99.90
11136;DHT22;5622;50.840;4.948;2022-12-11T23:03:25;0.40;99.90
11136;DHT22;5622;50.840;4.948;2022-12-11T23:05:53;0.20;99.90
11136;DHT22;5622;50.840;4.948;2022-12-11T23:08:20;1.00;99.90
11136;DHT22;5622;50.840;4.948;2022-12-11T23:10:47;0.60;99.90
11136;DHT22;5622;50.840;4.948;2022-12-11T23:13:16;0.00;99.90
11136;DHT22;5622;50.840;4.948;2022-12-11T23:15:43;0.90;99.90
11136;DHT22;5622;50.840;4.948;2022-12-11T23:18:10;0.50;99.90
11136;DHT22;5622;50.840;4.948;2022-12-11T23:20:37;0.30;99.90
11136;DHT22;5622;50.840;4.948;2022-12-11T23:23:04;0.00;99.90
11136;DHT22;5622;50.840;4.948;2022-12-11T23:25:32;0.10;99.90
11136;DHT22;5622;50.840;4.948;2022-12-11T23:27:59;0.00;99.90
11136;DHT22;5622;50.840;4.948;2022-12-11T23:30:27;0.60;99.90
11136;DHT22;5622;50.840;4.948;2022-12-11T23:32:55;-0.10;99.90
11136;DHT22;5622;50.840;4.948;2022-12-11T23:35:22;0.20;99.90
11136;DHT22;5622;50.840;4.948;2022-12-11T23:37:49;0.20;99.90
11136;DHT22;5622;50.840;4.948;2022-12-11T23:40:16;0.00;99.90
11136;DHT22;5622;50.840;4.948;2022-12-11T23:42:43;-0.10;99.90
11136;DHT22;5622;50.840;4.948;2022-12-11T23:45:11;0.20;99.90
11136;DHT22;5622;50.840;4.948;2022-12-11T23:47:39;0.10;99.90
11136;DHT22;5622;50.840;4.948;2022-12-11T23:50:07;-0.10;99.90
11136;DHT22;5622;50.840;4.948;2022-12-11T23:52:34;-0.10;99.90
11136;DHT22;5622;50.840;4.948;2022-12-11T23:55:01;0.60;99.90
11136;DHT22;5622;50.840;4.948;2022-12-11T23:57:29;-0.30;99.90
11136;DHT22;5622;50.840;4.948;2022-12-11T23:59:56;-0.30;99.90
